Time;durP1;ratioP1;P1;durP2;ratioP2;P2;SDS_P1;SDS_P2;PMS_P1;PMS_P2;Temp;Humidity;BMP_temperature;BMP_pressure;BME280_temperature;BME280_humidity;BME280_pressure;Samples;Min_cycle;Max_cycle;Signal;HPM_P1;HPM_P2
2021/01/03 18:52:22;;;;;;;31.95;18.17;;;2.10;99.90;;;;;;4976108;27;3713038;-91
2021/01/03 18:54:53;;;;;;;36.50;18.35;;;2.00;99.90;;;;;;5114172;28;20043;-90
2021/01/03 18:57:25;;;;;;;29.08;18.48;;;2.10;99.90;;;;;;5104558;28;20137;-90
2021/01/03 19:00:06;;;;;;;36.95;18.75;;;2.10;99.90;;;;;;5102412;28;20048;-90
2021/01/03 19:05:08;;;;;;;29.50;16.88;;;2.30;99.90;;;;;;5252114;22;20058;-88
2021/01/03 20:37:45;;;;;;;14.25;8.65;;;2.60;99.90;;;;;;5701768;23;20951;-90
2021/01/03 20:42:48;;;;;;;14.02;8.73;;;2.60;99.90;;;;;;4982084;23;20096;-92
2021/01/03 20:45:33;;;;;;;12.23;8.57;;;2.60;99.90;;;;;;4906679;29;20031;-92
2021/01/03 20:48:04;;;;;;;14.10;8.88;;;2.60;99.90;;;;;;4954630;23;20052;-89
2021/01/03 20:50:30;;;;;;;10.95;7.30;;;2.50;99.90;;;;;;5170667;23;20045;-87
2021/01/03 20:52:57;;;;;;;10.65;7.45;;;2.50;99.90;;;;;;4927956;23;20024;-86
2021/01/03 20:55:32;;;;;;;10.38;7.00;;;2.50;99.90;;;;;;4921470;29;20032;-88
2021/01/03 20:58:06;;;;;;;10.90;7.47;;;2.50;99.90;;;;;;4907769;29;20028;-90
2021/01/03 21:01:29;;;;;;;10.23;7.45;;;2.50;99.90;;;;;;4908113;29;20017;-92
2021/01/03 21:04:04;;;;;;;14.80;8.88;;;2.50;99.90;;;;;;4956615;23;20044;-92
2021/01/03 21:06:33;;;;;;;16.23;10.32;;;2.50;99.90;;;;;;4853161;29;20037;-93
2021/01/03 21:09:01;;;;;;;18.17;10.25;;;2.60;99.90;;;;;;4828603;29;20094;-92
2021/01/03 21:11:43;;;;;;;16.90;10.25;;;2.50;99.90;;;;;;4994668;23;20088;-90
2021/01/03 21:14:18;;;;;;;14.50;9.05;;;2.50;99.90;;;;;;4865839;29;20042;-92
2021/01/03 21:16:44;;;;;;;13.55;9.45;;;2.40;99.90;;;;;;4846540;29;20062;-91
2021/01/03 21:19:12;;;;;;;13.70;9.30;;;2.50;99.90;;;;;;4832640;29;20053;-91
2021/01/03 21:26:57;;;;;;;12.43;7.25;;;2.50;99.90;;;;;;5209415;23;20052;-91
2021/01/03 21:29:55;;;;;;;14.40;9.38;;;2.50;99.90;;;;;;4922315;29;20058;-91
2021/01/03 21:32:53;;;;;;;17.42;9.93;;;2.50;99.90;;;;;;4923364;29;20048;-92
2021/01/03 21:38:50;;;;;;;17.70;11.10;;;2.50;99.90;;;;;;4957245;23;20067;-93
2021/01/03 21:41:47;;;;;;;17.83;11.68;;;2.30;99.90;;;;;;5053927;23;20049;-93
2021/01/03 21:48:10;;;;;;;19.63;11.13;;;2.20;99.90;;;;;;4922491;29;20082;-92
2021/01/03 21:51:22;;;;;;;19.60;11.13;;;2.20;99.90;;;;;;4809995;29;20061;-95
2021/01/03 21:54:10;;;;;;;18.65;11.52;;;2.20;99.90;;;;;;4951783;23;20048;-91
2021/01/03 21:57:07;;;;;;;18.45;11.88;;;2.10;99.90;;;;;;4919365;29;20037;-91
2021/01/03 22:00:24;;;;;;;18.70;11.15;;;2.10;99.90;;;;;;4842378;29;20050;-90
2021/01/03 22:03:17;;;;;;;19.55;11.75;;;2.10;99.90;;;;;;4790341;30;20051;-88
2021/01/03 22:06:11;;;;;;;18.83;11.77;;;2.10;99.90;;;;;;4761248;30;20099;-92
2021/01/03 22:08:58;;;;;;;19.45;11.95;;;2.00;99.90;;;;;;4765038;29;20031;-92
2021/01/03 22:11:49;;;;;;;19.35;11.52;;;2.00;99.90;;;;;;4788408;30;20036;-91
2021/01/03 22:14:24;;;;;;;17.70;10.98;;;2.00;99.90;;;;;;4790510;30;20054;-92
2021/01/03 22:17:07;;;;;;;17.58;10.85;;;1.90;99.90;;;;;;4775820;30;20075;-91
2021/01/03 22:19:58;;;;;;;18.30;10.57;;;1.90;99.90;;;;;;4769448;30;20040;-92
2021/01/03 22:22:56;;;;;;;17.60;10.95;;;1.90;99.90;;;;;;4776718;30;20011;-91
2021/01/03 22:25:44;;;;;;;15.55;9.20;;;1.90;99.90;;;;;;4773795;30;20107;-90
2021/01/03 22:28:35;;;;;;;18.25;10.68;;;1.80;99.90;;;;;;4760177;30;20016;-89
2021/01/03 22:31:13;;;;;;;18.08;10.90;;;1.80;99.90;;;;;;4789819;29;20116;-92
2021/01/03 22:33:42;;;;;;;18.25;10.15;;;1.80;99.90;;;;;;4780691;30;20052;-92
2021/01/03 22:36:20;;;;;;;21.33;11.60;;;1.90;99.90;;;;;;4773174;29;20065;-91
2021/01/03 22:39:19;;;;;;;22.90;13.27;;;1.90;99.90;;;;;;4886515;29;20037;-91
2021/01/03 22:41:53;;;;;;;21.33;12.25;;;2.00;99.90;;;;;;4901385;29;20033;-92
2021/01/03 22:44:34;;;;;;;19.65;11.85;;;2.00;99.90;;;;;;4892201;29;20043;-92
2021/01/03 22:47:22;;;;;;;19.50;12.82;;;1.90;99.90;;;;;;4919904;29;20080;-92
2021/01/03 22:50:15;;;;;;;22.40;13.50;;;1.90;99.90;;;;;;4919713;29;20060;-91
2021/01/03 22:53:14;;;;;;;20.65;12.65;;;1.90;99.90;;;;;;4905578;29;20063;-91
2021/01/03 22:56:17;;;;;;;20.75;12.55;;;1.90;99.90;;;;;;4895013;29;20080;-93
2021/01/03 22:59:18;;;;;;;20.77;12.07;;;2.00;99.90;;;;;;4904859;29;20043;-92
2021/01/03 23:02:01;;;;;;;21.70;12.60;;;1.90;99.90;;;;;;4862518;29;20034;-92
2021/01/03 23:05:06;;;;;;;20.15;12.05;;;1.90;99.90;;;;;;4865070;29;20112;-92
2021/01/03 23:07:50;;;;;;;20.50;13.02;;;1.80;99.90;;;;;;4850091;29;20041;-93
2021/01/03 23:10:29;;;;;;;21.35;12.50;;;1.90;99.90;;;;;;4859592;29;20047;-93
2021/01/03 23:13:04;;;;;;;19.75;11.18;;;1.90;99.90;;;;;;4878384;29;20045;-92
2021/01/03 23:15:32;;;;;;;21.13;12.35;;;1.90;99.90;;;;;;4856350;29;20049;-94
2021/01/03 23:18:14;;;;;;;23.73;12.35;;;1.80;99.90;;;;;;4861733;29;20130;-92
2021/01/03 23:21:09;;;;;;;;;;;1.90;99.90;;;;;;4852353;29;20033;-91
2021/01/03 23:23:42;;;;;;;19.08;11.38;;;1.80;99.90;;;;;;4852312;29;19908;-91
2021/01/03 23:26:18;;;;;;;19.75;11.90;;;1.90;99.90;;;;;;4866723;29;20046;-92
2021/01/03 23:28:53;;;;;;;18.58;10.80;;;1.80;99.90;;;;;;4857150;29;20036;-92
2021/01/03 23:31:29;;;;;;;19.15;12.02;;;1.90;99.90;;;;;;4857071;29;20045;-92
2021/01/03 23:34:07;;;;;;;18.92;11.85;;;1.80;99.90;;;;;;4855310;29;20116;-93
2021/01/03 23:36:47;;;;;;;17.15;11.07;;;1.80;99.90;;;;;;4871834;29;20025;-91
2021/01/03 23:39:18;;;;;;;19.02;11.07;;;1.80;99.90;;;;;;4922272;29;20092;-92
2021/01/03 23:41:45;;;;;;;17.77;10.98;;;1.80;99.90;;;;;;4924518;29;20033;-94
2021/01/03 23:44:16;;;;;;;19.17;10.93;;;1.70;99.90;;;;;;4922020;29;20024;-91
2021/01/03 23:46:53;;;;;;;16.10;10.10;;;1.80;99.90;;;;;;4923378;29;20029;-91
2021/01/03 23:49:45;;;;;;;18.35;10.60;;;1.70;99.90;;;;;;4925304;29;20053;-93
2021/01/03 23:52:23;;;;;;;;;;;1.80;99.90;;;;;;4924295;29;20077;-92
2021/01/03 23:55:28;;;;;;;16.58;10.10;;;1.80;99.90;;;;;;4921500;29;19911;-90
2021/01/03 23:58:09;;;;;;;25.63;11.50;;;1.80;99.90;;;;;;4912290;29;20055;-93
